Airfield :







YOU CAN JOIN US ON...

 
LOGIN :

Register | Disclaimer

   EN    FR    IT 

 









Legend :    VFR   Marginal VFR   IFR   Intensive IFR   Very Intensive IFR
Visi :
Ceiling :
>= 8 km
>= 3000ft
5 to 8 km
1000 to 3000 ft
1500m to 5 km
500 to 1000 ft
800 to 1500m
200 to 500 ft
< 800m
< 200 ft
Symbols :   Thunderstorms  Fog  Heavy snow  Heavy precipitations  Wind > 20 kt






- Airport Elevation : 68 ft
- IATA code : YFC


CYFC - Fredericton

CURRENT METAR :
  • 192300Z AUTO 16006KT 9SM CLR 07/06 A3032 RMK SLP270

EXPIRED METARs :
  • 192200Z AUTO 21003KT 9SM CLR 09/08 A3033 RMK SLP274
  • 192100Z AUTO 20002KT 9SM CLR 12/07 A3032 RMK SLP270

TAF TAF CYFC
Valid from the 20 at 00:00 until the 20 at 12:00 UTC


192343Z 2000/2012 16005KT P6SM BKN240
FM200300 VRB03KT 6SM BR SCT080
PROB30 2003/2009 1/2SM FG VV002
FM200900 VRB03KT P6SM SCT002 OVC080 RMK FCST BASED ON AUTO OBS. NXT FCST BY 200600Z
CZQM FIR / North America



MET'MAP, your aeronautical weather chart ! - Copyright ORBIFLY December 2007 - Disclaimer

ORBIFLY MET'MAP TEAM :

Programming & Development : Alexandra Zaïnal
Concept & original design : Baudouin d'Aumeries
Assistance for programming : Marc-Olivier Méhu
Technical & hardware support : Manuel Goepfert

Contact : metmap@orbifly.com




SOURCES & CREDITS :

   NOAA